.
WxDataArchive / Data Records for 2013-07-04
2013-07-03 July 2013 2013-07-05

Data Records for Thursday, 04 July 2013

Time	Temp	Chill	HIndex	Humid	Dewpt	 Wind 	HiWind	WindDir	Rain 	Barom 
-----	----	-----	------	-----	-----	------	------	-------	-----	----- 
00:00	71.1	71.1	71.1	82	65.3	0	0	---	0.00	30.059 
00:05	71.1	71.1	71.1	82	65.3	0	0	---	0.00	30.059 
00:10	71.1	71.1	71.1	82	65.3	0	0	---	0.00	30.059 
00:15	71.1	71.1	71.1	82	65.3	0	1	45	0.00	30.063 
00:20	71.1	71.1	71.1	82	65.3	0	1	45	0.00	30.063 
00:25	70.9	70.9	70.9	83	65.5	0	0	---	0.00	30.063 
00:30	70.9	70.9	70.9	83	65.5	0	0	---	0.00	30.057 
00:35	70.9	70.9	70.9	83	65.5	0	1	45	0.00	30.057 
00:40	70.9	70.9	70.9	83	65.5	0	0	---	0.00	30.057 
00:45	70.8	70.8	70.8	83	65.4	0	0	---	0.00	30.057 
00:50	70.8	70.8	70.8	84	65.7	0	0	---	0.00	30.057 
00:55	70.6	70.6	70.6	84	65.5	0	0	---	0.00	30.057 
01:00	70.4	70.4	70.4	84	65.3	0	0	---	0.00	30.055 
01:05	70.3	70.3	70.3	84	65.2	0	0	---	0.00	30.055 
01:10	70.1	70.1	70.1	85	65.4	0	0	---	0.00	30.055 
01:15	69.8	69.8	69.8	85	65.1	0	0	---	0.00	30.055 
01:20	69.6	69.6	69.6	86	65.2	0	0	---	0.00	30.055 
01:25	69.4	69.4	69.4	86	65.0	0	0	---	0.00	30.055 
01:30	69.4	69.4	69.4	87	65.4	0	0	---	0.00	30.055 
01:35	69.3	69.3	69.3	87	65.3	0	0	---	0.00	30.055 
01:40	69.1	69.1	69.1	87	65.1	0	0	---	0.00	30.055 
01:45	68.9	68.9	68.9	87	64.9	0	0	---	0.00	30.055 
01:50	68.9	68.9	68.9	87	64.9	0	0	---	0.00	30.055 
01:55	68.8	68.8	68.8	87	64.8	0	0	---	0.00	30.055 
02:00	68.6	68.6	68.6	87	64.6	0	0	---	0.00	30.058 
02:05	68.4	68.4	68.4	87	64.4	0	0	---	0.00	30.058 
02:10	68.3	68.3	68.3	86	63.9	0	0	---	0.00	30.058 
02:15	68.3	68.3	68.3	86	63.9	0	0	---	0.00	30.061 
02:20	68.1	68.1	68.1	86	63.7	0	0	---	0.00	30.061 
02:25	67.9	67.9	67.9	86	63.5	0	0	---	0.00	30.061 
02:30	67.8	67.8	67.8	86	63.5	0	0	---	0.00	30.064 
02:35	67.6	67.6	67.6	86	63.3	0	0	---	0.00	30.064 
02:40	67.4	67.4	67.4	86	63.1	0	0	---	0.00	30.064 
02:45	67.3	67.3	67.3	86	63.0	0	0	---	0.00	30.064 
02:50	67.1	67.1	67.1	87	63.1	0	0	---	0.00	30.064 
02:55	66.8	66.8	66.8	87	62.8	0	0	---	0.00	30.064 
03:00	66.6	66.6	66.6	88	62.9	0	0	---	0.00	30.067 
03:05	66.4	66.4	66.4	88	62.7	0	0	---	0.00	30.067 
03:10	66.3	66.3	66.3	88	62.6	0	0	---	0.00	30.067 
03:15	66.1	66.1	66.1	88	62.4	0	0	---	0.00	30.066 
03:20	66.0	66.0	66.0	88	62.3	0	0	---	0.00	30.066 
03:25	66.0	66.0	66.0	89	62.7	0	0	---	0.00	30.066 
03:30	65.8	65.8	65.8	89	62.5	0	0	---	0.00	30.067 
03:35	65.8	65.8	65.8	89	62.5	0	0	---	0.00	30.067 
03:40	65.6	65.6	65.6	89	62.3	0	0	---	0.00	30.067 
03:45	65.6	65.6	65.6	90	62.6	0	0	---	0.00	30.063 
03:50	65.5	65.5	65.5	90	62.5	0	0	---	0.00	30.063 
03:55	65.5	65.5	65.5	90	62.5	0	0	---	0.00	30.063 
04:00	65.3	65.3	65.3	90	62.3	0	0	---	0.00	30.062 
04:05	65.3	65.3	65.3	90	62.3	0	0	---	0.00	30.062 
04:10	65.2	65.2	65.2	91	62.5	0	0	---	0.00	30.062 
04:15	65.2	65.2	65.2	91	62.5	0	0	---	0.00	30.063 
04:20	65.2	65.2	65.2	92	62.8	0	0	---	0.00	30.063 
04:25	65.2	65.2	65.2	92	62.8	0	0	---	0.00	30.063 
04:30	65.2	65.2	65.2	92	62.8	0	0	---	0.00	30.066 
04:35	65.2	65.2	65.2	92	62.8	0	0	---	0.00	30.066 
04:40	65.0	65.0	65.0	92	62.6	0	0	---	0.00	30.066 
04:45	65.0	65.0	65.0	92	62.6	0	0	---	0.00	30.067 
04:50	65.0	65.0	65.0	92	62.6	0	0	---	0.00	30.067 
04:55	64.8	64.8	64.8	92	62.4	0	0	---	0.00	30.067 
05:00	64.8	64.8	64.8	92	62.4	0	0	---	0.00	30.072 
05:05	64.8	64.8	64.8	92	62.4	0	0	---	0.00	30.072 
05:10	64.7	64.7	64.7	92	62.3	0	0	---	0.00	30.072 
05:15	64.7	64.7	64.7	92	62.3	0	0	---	0.00	30.074 
05:20	64.5	64.5	64.5	92	62.1	0	0	---	0.00	30.074 
05:25	64.5	64.5	64.5	93	62.4	0	0	---	0.00	30.074 
05:30	64.5	64.5	64.5	93	62.4	0	0	---	0.00	30.077 
05:35	64.5	64.5	64.5	93	62.4	0	0	---	0.00	30.077 
05:40	64.3	64.3	64.3	93	62.2	0	0	---	0.00	30.077 
05:45	64.3	64.3	64.3	93	62.2	0	0	---	0.00	30.077 
05:50	64.2	64.2	64.2	93	62.1	0	0	---	0.00	30.077 
05:55	64.2	64.2	64.2	93	62.1	0	0	---	0.00	30.077 
06:00	64.0	64.0	64.0	93	61.9	0	0	---	0.00	30.081 
06:05	64.0	64.0	64.0	93	61.9	0	0	---	0.00	30.081 
06:10	63.9	63.9	63.9	93	61.8	0	0	---	0.00	30.081 
06:15	63.9	63.9	63.9	93	61.8	0	0	---	0.00	30.088 
06:20	63.9	63.9	63.9	93	61.8	0	0	---	0.00	30.088 
06:25	63.7	63.7	63.7	93	61.6	0	0	---	0.00	30.088 
06:30	63.7	63.7	63.7	93	61.6	0	0	---	0.00	30.090 
06:35	63.5	63.5	63.5	94	61.7	0	1	45	0.00	30.090 
06:40	63.5	63.5	63.5	94	61.7	0	1	45	0.00	30.090 
06:45	63.5	63.5	63.5	94	61.7	0	0	---	0.00	30.094 
06:50	63.7	63.7	63.7	94	61.9	0	0	---	0.00	30.094 
06:55	63.7	63.7	63.7	94	61.9	0	0	---	0.00	30.094 
07:00	63.7	63.7	63.7	94	61.9	0	0	---	0.00	30.097 
07:05	63.9	63.9	63.9	94	62.1	0	0	---	0.00	30.097 
07:10	64.0	64.0	64.0	94	62.2	0	0	---	0.00	30.097 
07:15	64.2	64.2	64.2	94	62.4	0	0	---	0.00	30.096 
07:20	64.2	64.2	64.2	94	62.4	0	0	---	0.00	30.096 
07:25	64.3	64.3	64.3	94	62.5	0	0	---	0.00	30.096 
07:30	64.5	64.5	64.5	95	63.0	0	0	---	0.00	30.100 
07:35	64.7	64.7	64.7	95	63.2	0	0	---	0.00	30.100 
07:40	64.8	64.8	64.8	94	63.0	0	0	---	0.00	30.100 
07:45	65.0	65.0	65.0	95	63.5	0	0	---	0.00	30.108 
07:50	65.2	65.2	65.2	95	63.7	0	0	---	0.00	30.108 
07:55	65.3	65.3	65.3	95	63.8	0	0	---	0.00	30.108 
08:00	65.6	65.6	65.6	95	64.1	0	0	---	0.00	30.108 
08:05	65.8	65.8	65.8	95	64.3	0	0	---	0.00	30.108 
08:10	66.1	66.1	66.1	95	64.6	0	0	---	0.00	30.108 
08:15	66.3	66.3	66.3	94	64.5	0	0	---	0.00	30.109 
08:20	66.6	66.6	66.6	94	64.8	0	1	45	0.00	30.109 
08:25	66.8	66.8	66.8	94	65.0	0	0	---	0.00	30.109 
08:30	67.1	67.1	67.1	93	65.0	0	1	45	0.00	30.111 
08:35	67.4	67.4	67.4	93	65.3	0	0	---	0.00	30.111 
08:40	67.6	67.6	67.6	92	65.2	0	1	45	0.00	30.111 
08:45	67.8	67.8	67.8	92	65.4	0	0	---	0.00	30.116 
08:50	68.3	68.3	68.3	92	65.9	0	0	---	0.00	30.116 
08:55	68.6	68.6	68.6	91	65.9	0	0	---	0.00	30.116 
09:00	68.9	68.9	68.9	90	65.8	0	0	---	0.00	30.120 
09:05	69.3	69.3	69.3	89	65.9	0	0	---	0.00	30.120 
09:10	69.4	69.4	69.4	88	65.7	0	1	45	0.00	30.120 
09:15	69.6	69.6	69.6	87	65.6	0	0	---	0.00	30.125 
09:20	69.9	69.9	69.9	86	65.5	0	0	---	0.00	30.125 
09:25	70.1	70.1	70.1	84	65.0	0	1	45	0.00	30.125 
09:30	70.3	70.3	70.3	82	64.5	0	1	45	0.00	30.125 
09:35	70.8	70.8	70.8	82	65.0	0	3	45	0.00	30.125 
09:40	70.9	70.9	70.9	80	64.4	0	3	45	0.00	30.125 
09:45	71.1	71.1	71.1	80	64.6	0	1	45	0.00	30.124 
09:50	71.3	71.3	71.3	79	64.4	0	1	45	0.00	30.124 
09:55	71.5	71.5	71.5	78	64.3	0	1	68	0.00	30.124 
10:00	71.6	71.6	71.6	78	64.4	0	2	68	0.00	30.123 
10:05	71.6	71.6	71.6	78	64.4	0	1	68	0.00	30.123 
10:10	71.6	71.6	71.6	77	64.0	0	3	68	0.00	30.123 
10:15	72.1	72.1	72.1	77	64.5	0	2	68	0.00	30.117 
10:20	72.5	72.5	72.5	76	64.5	0	1	68	0.00	30.117 
10:25	72.7	72.7	72.7	75	64.3	1	2	68	0.00	30.117 
10:30	72.8	72.8	72.8	74	64.0	1	2	68	0.00	30.115 
10:35	73.0	73.0	73.0	74	64.2	0	2	68	0.00	30.115 
10:40	73.3	73.3	73.3	73	64.1	1	3	45	0.00	30.115 
10:45	73.9	73.9	73.9	72	64.3	1	2	45	0.00	30.110 
10:50	73.7	73.7	73.7	71	63.7	1	2	22	0.00	30.110 
10:55	73.5	73.5	73.5	71	63.5	0	2	0	0.00	30.110 
11:00	73.3	73.3	73.3	72	63.7	0	1	0	0.00	30.120 
11:05	73.5	73.5	73.5	72	63.9	1	3	0	0.00	30.120 
11:10	73.5	73.5	73.5	72	63.9	0	2	0	0.00	30.120 
11:15	73.9	73.9	73.9	71	63.9	1	2	0	0.00	30.123 
11:20	73.9	73.9	73.9	69	63.1	1	3	315	0.00	30.123 
11:25	73.9	73.9	73.9	70	63.5	0	2	315	0.00	30.123 
11:30	74.4	74.4	74.4	70	64.0	0	3	315	0.00	30.123 
11:35	74.6	74.6	74.6	69	63.7	0	2	315	0.00	30.123 
11:40	74.9	74.9	74.9	68	63.6	0	3	315	0.00	30.123 
11:45	75.1	75.1	76.9	69	64.2	0	1	315	0.00	30.122 
11:50	75.1	75.1	77.0	67	63.4	1	3	315	0.00	30.122 
11:55	75.4	75.4	77.3	67	63.7	1	3	315	0.00	30.122 
12:00	76.1	76.1	77.9	67	64.3	1	3	315	0.00	30.122 
12:05	76.5	76.5	78.3	65	63.8	0	2	315	0.00	30.122 
12:10	76.7	76.7	78.5	65	64.0	1	2	315	0.00	30.122 
12:15	76.5	76.5	78.3	64	63.4	0	1	315	0.00	30.121 
12:20	76.3	76.3	78.2	64	63.2	0	1	315	0.00	30.121 
12:25	76.3	76.3	78.1	65	63.6	0	0	---	0.00	30.121 
12:30	76.3	76.3	78.1	65	63.6	0	1	315	0.00	30.123 
12:35	76.3	76.3	78.2	63	62.8	0	1	315	0.00	30.123 
12:40	76.3	76.3	78.2	62	62.3	0	1	315	0.00	30.123 
12:45	76.5	76.5	78.3	63	62.9	0	2	315	0.00	30.123 
12:50	76.5	76.5	78.4	62	62.5	0	3	315	0.00	30.123 
12:55	76.7	76.7	78.5	61	62.2	0	1	315	0.00	30.123 
13:00	76.5	76.5	78.4	62	62.5	0	1	315	0.00	30.118 
13:05	76.3	76.3	78.2	61	61.8	1	4	315	0.00	30.118 
13:10	76.3	76.3	78.2	62	62.3	0	2	315	0.00	30.118 
13:15	76.7	76.7	78.5	62	62.7	0	1	315	0.00	30.107 
13:20	77.0	77.0	78.8	60	62.0	0	1	315	0.00	30.107 
13:25	77.2	77.2	78.9	59	61.7	0	2	315	0.00	30.107 
13:30	77.4	77.4	79.1	59	61.9	0	2	315	0.00	30.108 
13:35	77.6	77.6	79.3	59	62.1	0	1	315	0.00	30.108 
13:40	77.4	77.4	79.1	59	61.9	0	1	315	0.00	30.108 
13:45	77.2	77.2	78.9	59	61.7	0	1	315	0.00	30.108 
13:50	77.2	77.2	78.9	59	61.7	0	1	315	0.00	30.108 
13:55	77.4	77.4	79.1	61	62.9	0	2	338	0.00	30.108 
14:00	77.9	77.9	79.5	58	61.9	0	2	338	0.00	30.108 
14:05	78.3	78.3	80.0	61	63.7	0	2	338	0.00	30.108 
14:10	78.3	78.3	79.9	58	62.3	1	2	338	0.00	30.108 
14:15	78.3	78.3	79.9	59	62.8	1	3	338	0.00	30.106 
14:20	78.3	78.3	79.8	57	61.8	0	2	338	0.00	30.106 
14:25	78.3	78.3	79.9	58	62.3	0	1	338	0.00	30.106 
14:30	79.0	79.0	80.5	58	62.9	1	4	112	0.00	30.107 
14:35	79.4	79.4	80.9	57	62.8	1	4	112	0.00	30.107 
14:40	79.4	79.4	80.7	55	61.8	0	3	112	0.00	30.107 
14:45	78.8	78.8	80.2	56	61.8	0	2	112	0.00	30.106 
14:50	78.8	78.8	80.4	59	63.2	0	1	112	0.00	30.106 
14:55	78.8	78.8	80.3	57	62.3	0	3	112	0.00	30.106 
15:00	78.8	78.8	80.4	59	63.2	0	2	292	0.00	30.093 
15:05	79.0	79.0	80.5	57	62.4	0	1	292	0.00	30.093 
15:10	79.0	79.0	80.5	58	62.9	0	3	292	0.00	30.093 
15:15	79.0	79.0	80.5	58	62.9	0	2	292	0.00	30.093 
15:20	79.0	79.0	80.5	57	62.4	0	2	292	0.00	30.093 
15:25	78.8	78.8	80.2	56	61.8	0	2	292	0.00	30.093 
15:30	79.0	79.0	80.5	58	62.9	0	1	292	0.00	30.087 
15:35	79.2	79.2	80.7	57	62.6	1	2	292	0.00	30.087 
15:40	79.4	79.4	80.9	57	62.8	0	2	292	0.00	30.087 
15:45	79.6	79.6	81.0	56	62.5	1	3	292	0.00	30.085 
15:50	79.4	79.4	80.9	57	62.8	1	3	292	0.00	30.085 
15:55	79.6	79.6	80.9	55	62.0	0	1	292	0.00	30.085 
16:00	79.4	79.4	80.8	56	62.3	0	1	292	0.00	30.086 
16:05	79.6	79.6	81.1	57	63.0	0	2	292	0.00	30.086 
16:10	79.6	79.6	80.9	55	62.0	1	3	90	0.00	30.086 
16:15	79.2	79.2	80.4	54	61.1	0	3	90	0.00	30.075 
16:20	79.0	79.0	80.6	59	63.4	0	2	90	0.00	30.075 
16:25	79.2	79.2	80.7	58	63.1	0	2	90	0.00	30.075 
16:30	79.4	79.4	80.9	58	63.3	0	1	90	0.00	30.079 
16:35	79.6	79.6	81.1	57	63.0	0	2	90	0.00	30.079 
16:40	79.9	79.9	81.3	56	62.8	0	1	90	0.00	30.079 
16:45	79.9	79.9	81.2	55	62.3	0	1	90	0.00	30.081 
16:50	79.8	79.8	81.3	57	63.2	0	1	90	0.00	30.081 
16:55	79.6	79.6	80.7	53	60.9	0	1	90	0.00	30.081 
17:00	79.0	79.0	80.4	56	61.9	0	1	90	0.00	30.080 
17:05	78.8	78.8	80.4	59	63.2	0	1	90	0.00	30.080 
17:10	78.6	78.6	80.1	58	62.6	0	1	90	0.00	30.080 
17:15	78.6	78.6	80.1	58	62.6	0	1	90	0.00	30.077 
17:20	78.6	78.6	80.1	58	62.6	0	2	90	0.00	30.077 
17:25	78.5	78.5	80.1	59	63.0	0	2	90	0.00	30.077 
17:30	78.5	78.5	80.0	58	62.5	0	1	90	0.00	30.073 
17:35	78.5	78.5	80.0	58	62.5	0	1	90	0.00	30.073 
17:40	78.5	78.5	80.1	59	63.0	0	0	---	0.00	30.073 
17:45	78.3	78.3	79.9	59	62.8	0	0	---	0.00	30.075 
17:50	78.1	78.1	79.7	59	62.6	0	0	---	0.00	30.075 
17:55	78.1	78.1	79.7	59	62.6	0	0	---	0.00	30.075 
18:00	77.9	77.9	79.5	58	61.9	0	1	90	0.00	30.068 
18:05	77.7	77.7	79.4	59	62.2	0	1	90	0.00	30.068 
18:10	77.2	77.2	78.8	54	59.2	0	2	90	0.00	30.068 
18:15	76.8	76.8	78.6	54	58.9	0	2	90	0.00	30.074 
18:20	76.7	76.7	78.5	56	59.8	0	1	90	0.00	30.074 
18:25	76.7	76.7	78.5	57	60.3	0	1	90	0.00	30.074 
18:30	76.5	76.5	78.4	56	59.6	0	3	90	0.00	30.051 
18:35	76.3	76.3	78.3	57	59.9	0	0	---	0.00	30.051 
18:40	76.1	76.1	78.1	57	59.7	0	0	---	0.00	30.051 
18:45	76.0	76.0	78.1	57	59.6	0	0	---	0.00	30.064 
18:50	75.8	75.8	77.9	59	60.4	0	1	90	0.00	30.064 
18:55	75.8	75.8	77.9	58	59.9	0	1	90	0.00	30.064 
19:00	75.6	75.6	77.8	59	60.2	0	0	---	0.00	30.064 
19:05	75.4	75.4	77.7	57	59.1	0	0	---	0.00	30.064 
19:10	75.4	75.4	77.7	56	58.6	0	0	---	0.00	30.064 
19:15	75.3	75.3	77.7	55	58.0	0	2	90	0.00	30.065 
19:20	75.3	75.3	77.6	58	59.5	1	4	90	0.00	30.065 
19:25	75.1	75.1	77.4	61	60.7	0	1	90	0.00	30.065 
19:30	75.1	75.1	77.2	64	62.1	0	1	90	0.00	30.066 
19:35	75.1	75.1	77.1	66	62.9	0	0	---	0.00	30.066 
19:40	74.9	74.9	74.9	66	62.8	0	0	---	0.00	30.066 
19:45	74.7	74.7	74.7	66	62.6	0	0	---	0.00	30.064 
19:50	74.7	74.7	74.7	65	62.1	0	0	---	0.00	30.064 
19:55	74.7	74.7	74.7	65	62.1	0	1	90	0.00	30.064 
20:00	74.7	74.7	74.7	65	62.1	0	0	---	0.00	30.063 
20:05	74.7	74.7	74.7	65	62.1	0	0	---	0.00	30.063 
20:10	74.6	74.6	74.6	65	62.0	0	0	---	0.00	30.063 
20:15	74.6	74.6	74.6	63	61.2	0	0	---	0.00	30.062 
20:20	74.6	74.6	74.6	63	61.2	0	0	---	0.00	30.062 
20:25	74.6	74.6	74.6	64	61.6	0	0	---	0.00	30.062 
20:30	74.6	74.6	74.6	63	61.2	0	1	90	0.00	30.054 
20:35	74.4	74.4	74.4	63	61.0	0	0	---	0.00	30.054 
20:40	74.4	74.4	74.4	62	60.5	0	0	---	0.00	30.054 
20:45	74.2	74.2	74.2	62	60.3	0	0	---	0.00	30.060 
20:50	74.2	74.2	74.2	62	60.3	0	0	---	0.00	30.060 
20:55	74.0	74.0	74.0	63	60.6	0	0	---	0.00	30.060 
21:00	74.0	74.0	74.0	64	61.0	0	0	---	0.00	30.061 
21:05	73.9	73.9	73.9	64	60.9	0	0	---	0.00	30.061 
21:10	73.7	73.7	73.7	64	60.7	0	0	---	0.00	30.061 
21:15	73.7	73.7	73.7	66	61.6	0	0	---	0.00	30.055 
21:20	73.5	73.5	73.5	66	61.4	0	0	---	0.00	30.055 
21:25	73.5	73.5	73.5	65	61.0	0	0	---	0.00	30.055 
21:30	73.5	73.5	73.5	67	61.9	0	0	---	0.00	30.055 
21:35	73.3	73.3	73.3	68	62.1	0	0	---	0.00	30.055 
21:40	73.2	73.2	73.2	68	62.0	0	0	---	0.00	30.055 
21:45	73.2	73.2	73.2	69	62.4	0	0	---	0.00	30.064 
21:50	73.0	73.0	73.0	70	62.6	0	0	---	0.00	30.064 
21:55	72.8	72.8	72.8	70	62.4	0	0	---	0.00	30.064 
22:00	72.7	72.7	72.7	69	61.9	0	0	---	0.00	30.075 
22:05	72.7	72.7	72.7	70	62.3	0	0	---	0.00	30.075 
22:10	72.5	72.5	72.5	70	62.1	0	0	---	0.00	30.075 
22:15	72.3	72.3	72.3	69	61.5	0	0	---	0.00	30.075 
22:20	72.5	72.5	72.5	69	61.7	0	0	---	0.00	30.075 
22:25	72.5	72.5	72.5	70	62.1	0	0	---	0.00	30.075 
22:30	72.5	72.5	72.5	71	62.5	0	0	---	0.00	30.075 
22:35	72.5	72.5	72.5	72	62.9	0	0	---	0.00	30.075 
22:40	72.5	72.5	72.5	72	62.9	0	0	---	0.00	30.075 
22:45	72.5	72.5	72.5	74	63.7	0	0	---	0.00	30.076 
22:50	72.5	72.5	72.5	76	64.5	0	1	90	0.00	30.076 
22:55	72.5	72.5	72.5	79	65.6	0	0	---	0.00	30.076 
23:00	72.5	72.5	72.5	80	66.0	0	0	---	0.00	30.075 
23:05	72.5	72.5	72.5	81	66.3	0	0	---	0.00	30.075 
23:10	72.3	72.3	72.3	82	66.5	0	0	---	0.00	30.075 
23:15	72.3	72.3	72.3	83	66.8	0	1	90	0.00	30.068 
23:20	72.3	72.3	72.3	84	67.2	0	0	---	0.00	30.068 
23:25	72.1	72.1	72.1	84	67.0	0	0	---	0.00	30.068 
23:30	72.1	72.1	72.1	84	67.0	0	0	---	0.00	30.070 
23:35	72.0	72.0	72.0	85	67.2	0	0	---	0.00	30.070 
23:40	71.8	71.8	71.8	85	67.0	0	0	---	0.00	30.070 
23:45	71.8	71.8	71.8	86	67.4	0	0	---	0.00	30.060 
23:50	71.8	71.8	71.8	86	67.4	0	0	---	0.00	30.060 
23:55	71.8	71.8	71.8	86	67.4	0	0	---	0.00	30.060 

CoCoRaHS
IN-AL-39
A2 Web Hosting
Creative Commons License
GoDaddy
search engine by freefind advanced

loaded 2018-11-17 14:07:54 • last modified 2010-11-18 10:43:29
Privacy PolicyDisclaimer
• wx.awcolley.com is powered by PmWiki v.2002016 •
• all content (unless otherwise noted) © 2018 A W Colley